TJSJ/SJU METAR and TAF weather

Enter ICAO airport designator
Station Type Date Time Source
TJSJ METAR 2020/07/03 13:56 UTC NOAA

TJSJ 031356Z 09010KT 8SM SCT033 32/23 A3002 RMK AO2 SLP163 HZ ALQDS T03170233


Station Type Date Time Source
TJSJ Decoded METAR 2020/07/03 13:56 UTC NOAA

San Juan, Luis Munoz Marin International Airport, PR, United States (TJSJ) 18-27N 066-00W
Jul 03, 2020 - 09:56 AM EDT / 2020.07.03 1356 UTC
Wind: from the E (090 degrees) at 12 MPH (10 KT):0
Visibility: 8 mile(s):0
Sky conditions: partly cloudy
Temperature: 89.1 F (31.7 C)
Heat index: 98.1 F (36.7 C):1
Dew Point: 73.9 F (23.3 C)
Relative Humidity: 61%
Pressure (altimeter): 30.02 in. Hg (1016 hPa)
ob: TJSJ 031356Z 09010KT 8SM SCT033 32/23 A3002 RMK AO2 SLP163 HZ ALQDS T03170233
cycle: 14

Station Type Date Time Source
TJSJ TAF 2020/07/03 12:48 UTC NOAA

TAF TJSJ 031140Z 0312/0412 10011KT P6SM FEW025 FEW045
FM031700 08014G20KT P6SM FEW025 FEW045
FM032300 10005KT P6SM FEW045

Example: see airport list